Time;durP1;ratioP1;P1;durP2;ratioP2;P2;SDS_P1;SDS_P2;PMS_P1;PMS_P2;Temp;Humidity;BMP_temperature;BMP_pressure;BME280_temperature;BME280_humidity;BME280_pressure;Samples;Min_cycle;Max_cycle;Signal;HPM_P1;HPM_P2
2023/10/11 00:00:32;;;;;;;;;;;;;;;20.80;29.46;98828.59;5000372;28;983;-74
2023/10/11 00:02:47;;;;;;;;;;;;;;;20.61;29.74;98832.00;4960048;28;946;-76
2023/10/11 00:05:13;;;;;;;;;;;;;;;20.73;29.54;98834.34;4976588;28;1014;-75
2023/10/11 00:07:38;;;;;;;;;;;;;;;20.90;29.34;98831.75;4960434;28;1591;-75
2023/10/11 00:10:10;;;;;;;;;;;;;;;20.87;29.15;98838.22;4976149;28;958;-75
2023/10/11 00:12:36;;;;;;;;;;;;;;;20.94;29.00;98838.19;4961993;28;1001;-76
2023/10/11 00:15:02;;;;;;;;;;;;;;;20.79;29.30;98840.34;4976294;28;1089;-75
2023/10/11 00:17:28;;;;;;;;;;;;;;;20.81;29.41;98835.06;4976141;28;1981;-75
2023/10/11 00:19:53;;;;;;;;;;;;;;;20.90;29.29;98841.03;4937419;29;1294;-75
2023/10/11 00:22:19;;;;;;;;;;;;;;;20.68;29.59;98831.97;4921949;29;998;-75
2023/10/11 00:24:44;;;;;;;;;;;;;;;20.76;29.49;98833.50;4921713;29;1094;-75
2023/10/11 00:27:10;;;;;;;;;;;;;;;20.53;29.90;98830.50;4937461;29;1057;-76
2023/10/11 00:29:39;;;;;;;;;;;;;;;20.59;29.66;98833.69;4937488;29;1183;-75
2023/10/11 00:32:04;;;;;;;;;;;;;;;20.58;29.65;98835.69;4937714;29;940;-75
2023/10/11 00:34:32;;;;;;;;;;;;;;;20.93;29.19;98830.88;4957456;28;982;-76
2023/10/11 00:36:58;;;;;;;;;;;;;;;20.69;29.57;98822.25;4975551;28;1906;-75
2023/10/11 00:39:24;;;;;;;;;;;;;;;20.67;29.60;98827.50;4975968;28;1397;-76
2023/10/11 00:41:50;;;;;;;;;;;;;;;20.76;29.53;98825.00;4975875;28;1131;-75
2023/10/11 00:44:21;;;;;;;;;;;;;;;20.65;29.64;98826.34;4975771;28;914;-75
2023/10/11 00:46:57;;;;;;;;;;;;;;;20.42;29.87;98824.09;4975423;28;1062;-75
2023/10/11 00:49:23;;;;;;;;;;;;;;;20.86;29.47;98830.97;4937151;29;1470;-75
2023/10/11 00:51:49;;;;;;;;;;;;;;;20.68;29.42;98831.16;4921543;29;923;-75
2023/10/11 00:54:15;;;;;;;;;;;;;;;20.51;29.84;98827.25;4921378;29;1156;-75
2023/10/11 00:56:43;;;;;;;;;;;;;;;20.47;29.62;98826.53;4945740;28;2041;-75
2023/10/11 00:59:11;;;;;;;;;;;;;;;20.66;29.54;98831.56;4959463;28;985;-75
2023/10/11 01:01:39;;;;;;;;;;;;;;;20.58;29.79;98832.88;4975914;28;894;-75
2023/10/11 01:04:06;;;;;;;;;;;;;;;20.38;29.72;98831.81;4943315;28;1083;-75
2023/10/11 01:06:34;;;;;;;;;;;;;;;20.54;29.66;98832.91;4943379;28;1140;-75
2023/10/11 01:08:59;;;;;;;;;;;;;;;20.86;28.79;98840.25;4959125;28;1274;-76
2023/10/11 01:11:26;;;;;;;;;;;;;;;20.69;29.02;98838.44;4959386;28;1209;-75
2023/10/11 01:13:52;;;;;;;;;;;;;;;20.61;29.24;98837.66;4943152;28;1081;-75
2023/10/11 01:16:20;;;;;;;;;;;;;;;20.55;29.50;98842.97;4959187;28;1934;-75
2023/10/11 01:18:47;;;;;;;;;;;;;;;20.69;29.29;98850.53;4959228;28;1187;-75
2023/10/11 01:21:13;;;;;;;;;;;;;;;20.49;29.42;98841.03;4992420;28;1094;-75
2023/10/11 01:23:38;;;;;;;;;;;;;;;20.72;28.99;98849.69;4997925;28;959;-76
2023/10/11 01:26:07;;;;;;;;;;;;;;;20.58;29.08;98849.03;5014515;28;1163;-75
2023/10/11 01:28:34;;;;;;;;;;;;;;;20.79;28.85;98854.50;5014566;28;944;-75
2023/10/11 01:31:00;;;;;;;;;;;;;;;20.75;28.92;98853.72;4998020;28;1075;-75
2023/10/11 01:33:26;;;;;;;;;;;;;;;20.83;29.02;98857.25;4998089;28;1095;-76
2023/10/11 01:35:52;;;;;;;;;;;;;;;20.62;29.27;98856.25;5001361;28;1217;-76
2023/10/11 01:38:18;;;;;;;;;;;;;;;20.48;29.28;98856.38;5030763;28;1898;-75
2023/10/11 01:40:43;;;;;;;;;;;;;;;20.61;29.25;98860.28;4998540;28;1108;-75
2023/10/11 01:43:09;;;;;;;;;;;;;;;20.78;28.82;98870.66;4977984;28;1094;-76
2023/10/11 01:45:39;;;;;;;;;;;;;;;20.65;28.89;98860.28;4978252;28;1230;-75
2023/10/11 01:48:04;;;;;;;;;;;;;;;20.91;28.63;98872.94;4978286;28;905;-75
2023/10/11 01:50:30;;;;;;;;;;;;;;;20.85;28.59;98868.97;4978316;28;1135;-74
2023/10/11 01:52:56;;;;;;;;;;;;;;;20.70;28.86;98871.94;4994642;28;956;-75
2023/10/11 01:55:22;;;;;;;;;;;;;;;20.91;28.72;98870.13;4978421;28;1223;-75
2023/10/11 01:57:51;;;;;;;;;;;;;;;20.87;28.60;98872.19;4994353;28;1902;-75
2023/10/11 02:00:18;;;;;;;;;;;;;;;20.63;28.94;98866.34;4978095;28;1179;-75
2023/10/11 02:02:55;;;;;;;;;;;;;;;20.89;28.54;98875.41;4978006;28;1308;-75
2023/10/11 02:05:23;;;;;;;;;;;;;;;20.64;28.92;98865.13;4978524;28;1246;-76
2023/10/11 02:07:49;;;;;;;;;;;;;;;20.60;29.00;98875.66;4980815;28;1599;-75
2023/10/11 02:10:16;;;;;;;;;;;;;;;20.87;28.84;98872.19;4981963;28;1493;-75
2023/10/11 02:12:44;;;;;;;;;;;;;;;20.80;28.80;98873.84;4981760;28;1096;-75
2023/10/11 02:15:11;;;;;;;;;;;;;;;20.67;29.10;98869.13;4986560;28;1455;-75
2023/10/11 02:17:39;;;;;;;;;;;;;;;20.73;28.64;98871.09;5002004;28;1975;-75
2023/10/11 02:20:20;;;;;;;;;;;;;;;20.90;28.74;98877.81;4986342;28;1299;-75
2023/10/11 02:22:45;;;;;;;;;;;;;;;20.76;28.68;98884.41;4970976;28;1158;-75
2023/10/11 02:25:15;;;;;;;;;;;;;;;20.72;28.82;98886.44;5002275;28;1088;-75
2023/10/11 02:27:42;;;;;;;;;;;;;;;20.57;28.95;98882.13;4986321;28;1327;-76
2023/10/11 02:30:13;;;;;;;;;;;;;;;20.63;28.90;98885.34;4969919;28;1081;-75
2023/10/11 02:32:41;;;;;;;;;;;;;;;20.59;29.06;98878.91;4981991;28;1119;-76
2023/10/11 02:35:13;;;;;;;;;;;;;;;20.45;29.35;98885.44;4981221;28;1072;-76
2023/10/11 02:37:39;;;;;;;;;;;;;;;20.66;28.79;98885.28;4997286;28;1973;-76
2023/10/11 02:40:07;;;;;;;;;;;;;;;20.60;28.97;98898.28;4997555;28;1250;-76
2023/10/11 02:42:36;;;;;;;;;;;;;;;20.69;28.66;98892.16;4981235;28;1120;-75
2023/10/11 02:45:06;;;;;;;;;;;;;;;20.61;28.87;98890.59;4965112;28;1262;-75
2023/10/11 02:47:35;;;;;;;;;;;;;;;20.78;28.92;98887.63;4981189;28;891;-75
2023/10/11 02:50:05;;;;;;;;;;;;;;;20.77;28.82;98890.84;4965031;28;1263;-75
2023/10/11 02:52:35;;;;;;;;;;;;;;;20.64;29.09;98895.44;4980903;28;1217;-76
2023/10/11 02:55:13;;;;;;;;;;;;;;;20.63;29.05;98891.81;4977602;28;1147;-75
2023/10/11 02:57:40;;;;;;;;;;;;;;;20.67;28.74;98903.88;4938794;29;1970;-77
2023/10/11 03:00:21;;;;;;;;;;;;;;;20.68;28.81;98899.84;4923070;29;980;-75
2023/10/11 03:02:56;;;;;;;;;;;;;;;20.51;29.09;98897.94;4922911;29;1240;-75
2023/10/11 03:05:26;;;;;;;;;;;;;;;20.50;29.26;98893.50;4924375;29;1213;-75
2023/10/11 03:08:13;;;;;;;;;;;;;;;20.52;29.11;98897.56;4923217;29;1329;-75
2023/10/11 03:10:53;;;;;;;;;;;;;;;20.58;29.16;98899.94;4938770;29;1416;-75
2023/10/11 03:13:23;;;;;;;;;;;;;;;20.52;28.95;98902.38;4938572;29;1186;-75
2023/10/11 03:15:55;;;;;;;;;;;;;;;20.35;29.42;98904.09;4939083;29;1042;-75
2023/10/11 03:18:22;;;;;;;;;;;;;;;20.45;29.14;98891.09;4937839;29;1910;-75
2023/10/11 03:20:50;;;;;;;;;;;;;;;20.46;29.45;98887.88;4938761;29;955;-76
2023/10/11 03:23:20;;;;;;;;;;;;;;;20.57;29.16;98882.13;4938548;29;909;-75
2023/10/11 03:25:49;;;;;;;;;;;;;;;20.81;28.49;98889.59;4903781;29;941;-75
2023/10/11 03:28:15;;;;;;;;;;;;;;;20.50;28.96;98882.22;4930263;29;1353;-76
2023/10/11 03:30:42;;;;;;;;;;;;;;;20.75;28.83;98887.66;4958099;29;920;-76
2023/10/11 03:33:08;;;;;;;;;;;;;;;20.45;28.92;98879.78;4957840;28;1146;-76
2023/10/11 03:35:36;;;;;;;;;;;;;;;20.38;29.34;98880.66;4957650;28;1104;-76
2023/10/11 03:38:02;;;;;;;;;;;;;;;20.36;29.22;98883.09;4957823;29;1985;-76
2023/10/11 03:40:54;;;;;;;;;;;;;;;20.53;29.07;98878.56;4968955;28;1015;-75
2023/10/11 03:43:20;;;;;;;;;;;;;;;20.61;29.22;98882.91;4964313;28;1130;-76
2023/10/11 03:45:49;;;;;;;;;;;;;;;20.76;28.83;98881.56;4960822;28;1227;-75
2023/10/11 03:48:18;;;;;;;;;;;;;;;20.52;28.99;98879.75;4937720;29;1452;-75
2023/10/11 03:50:52;;;;;;;;;;;;;;;21.24;28.53;98886.34;4922244;29;993;-76
2023/10/11 03:53:17;;;;;;;;;;;;;;;21.35;28.69;98885.44;4923490;29;1120;-75
2023/10/11 03:55:47;;;;;;;;;;;;;;;21.60;28.78;98880.28;4923348;29;1097;-75
2023/10/11 03:58:32;;;;;;;;;;;;;;;21.23;28.88;98887.56;4947474;29;1907;-76
2023/10/11 04:01:23;;;;;;;;;;;;;;;21.14;29.04;98886.44;4918980;29;934;-76
2023/10/11 04:03:49;;;;;;;;;;;;;;;20.66;29.92;98890.94;4903075;29;979;-76
2023/10/11 04:06:14;;;;;;;;;;;;;;;20.59;30.42;98885.38;4918977;29;970;-75
2023/10/11 04:08:44;;;;;;;;;;;;;;;20.90;29.81;98888.31;4918943;29;971;-76
2023/10/11 04:13:58;;;;;;;;;;;;;;;20.65;30.04;98899.84;4880926;29;953;-76
2023/10/11 04:16:24;;;;;;;;;;;;;;;20.72;30.16;98885.66;4881299;29;1915;-77
2023/10/11 04:18:52;;;;;;;;;;;;;;;20.68;29.95;98885.69;4887428;29;940;-76
2023/10/11 04:23:55;;;;;;;;;;;;;;;20.70;30.04;98902.25;4899594;29;1872;-77
2023/10/11 04:26:33;;;;;;;;;;;;;;;20.70;29.84;98896.59;4899622;29;1585;-77
2023/10/11 04:29:06;;;;;;;;;;;;;;;20.57;30.33;98904.75;4915535;29;1456;-77
2023/10/11 04:31:54;;;;;;;;;;;;;;;20.83;29.98;98913.84;4905832;29;1600;-76
2023/10/11 04:34:23;;;;;;;;;;;;;;;20.96;29.53;98914.94;4923894;29;1568;-76
2023/10/11 04:36:55;;;;;;;;;;;;;;;20.89;29.68;98909.34;4921245;29;1899;-76
2023/10/11 04:39:27;;;;;;;;;;;;;;;20.63;30.17;98914.44;4962767;28;1195;-76
2023/10/11 04:41:57;;;;;;;;;;;;;;;20.56;30.14;98914.47;4980179;28;942;-76
2023/10/11 04:44:31;;;;;;;;;;;;;;;20.67;29.82;98915.19;4963293;28;948;-76
2023/10/11 04:46:57;;;;;;;;;;;;;;;20.67;30.10;98920.84;4979927;28;1011;-76
2023/10/11 04:49:24;;;;;;;;;;;;;;;20.78;29.80;98924.41;4994955;28;960;-76
2023/10/11 04:51:51;;;;;;;;;;;;;;;20.63;30.12;98931.38;5028932;28;998;-76
2023/10/11 04:54:18;;;;;;;;;;;;;;;20.59;30.30;98936.25;5017581;28;996;-77
2023/10/11 04:59:11;;;;;;;;;;;;;;;20.62;29.92;98935.41;5034324;28;954;-76
2023/10/11 05:01:58;;;;;;;;;;;;;;;20.36;30.16;98933.97;5014703;28;977;-75
2023/10/11 05:04:27;;;;;;;;;;;;;;;20.67;29.69;98934.97;4969210;28;1602;-76
2023/10/11 05:06:53;;;;;;;;;;;;;;;20.89;29.72;98948.97;4952239;28;1559;-76
2023/10/11 05:09:29;;;;;;;;;;;;;;;20.88;29.71;98941.66;4990463;28;1535;-76
2023/10/11 05:12:07;;;;;;;;;;;;;;;20.65;29.82;98943.06;4974583;28;1511;-76
2023/10/11 05:19:45;;;;;;;;;;;;;;;20.68;29.66;98962.06;4959916;28;1745;-76
2023/10/11 05:22:16;;;;;;;;;;;;;;;20.68;29.69;98962.06;4943711;28;1716;-76
2023/10/11 05:30:33;;;;;;;;;;;;;;;20.54;29.79;98973.47;4959858;28;1104;-76
2023/10/11 05:52:14;;;;;;;;;;;;;;;20.81;29.54;99005.56;4965379;28;1108;-76
2023/10/11 05:54:42;;;;;;;;;;;;;;;21.07;29.19;99006.19;5001879;28;1034;-76
2023/10/11 05:57:07;;;;;;;;;;;;;;;20.79;29.55;99008.03;5001598;28;1906;-76
2023/10/11 05:59:37;;;;;;;;;;;;;;;20.75;29.82;99012.09;5017861;28;1066;-76
2023/10/11 06:02:07;;;;;;;;;;;;;;;20.80;29.59;99020.16;5001956;28;1018;-76
2023/10/11 06:04:32;;;;;;;;;;;;;;;20.92;29.60;99016.81;5002306;28;911;-75
2023/10/11 06:06:58;;;;;;;;;;;;;;;20.77;29.54;99020.97;5001491;28;1139;-76
2023/10/11 06:09:27;;;;;;;;;;;;;;;20.79;29.53;99036.31;5001442;28;1123;-76
2023/10/11 06:11:53;;;;;;;;;;;;;;;20.41;30.27;99037.31;5001321;28;1163;-76
2023/10/11 06:14:19;;;;;;;;;;;;;;;20.73;29.67;99037.16;5017842;28;904;-76
2023/10/11 06:16:58;;;;;;;;;;;;;;;20.96;29.52;99033.75;5001352;28;1906;-76
2023/10/11 06:19:27;;;;;;;;;;;;;;;20.79;29.76;99041.97;5002817;28;968;-76
2023/10/11 06:21:56;;;;;;;;;;;;;;;20.59;29.98;99049.38;5009958;28;1052;-76
2023/10/11 06:24:22;;;;;;;;;;;;;;;20.38;30.62;99044.59;5038325;28;966;-76
2023/10/11 06:29:16;;;;;;;;;;;;;;;20.95;29.40;99054.78;5039394;28;978;-76
2023/10/11 06:31:45;;;;;;;;;;;;;;;20.75;29.64;99055.31;5038513;28;971;-77
2023/10/11 06:34:18;;;;;;;;;;;;;;;20.78;29.99;99065.81;5038075;28;1633;-76
2023/10/11 06:36:50;;;;;;;;;;;;;;;20.73;30.02;99060.59;5019573;28;1906;-76
2023/10/11 06:45:01;;;;;;;;;;;;;;;20.91;29.56;99076.63;4976615;28;1478;-76
2023/10/11 06:47:27;;;;;;;;;;;;;;;20.73;29.89;99071.91;4971951;28;1341;-76
2023/10/11 06:49:55;;;;;;;;;;;;;;;20.62;30.03;99073.16;4972234;28;1441;-76
2023/10/11 06:52:31;;;;;;;;;;;;;;;20.65;29.85;99070.34;4968358;28;1547;-76
2023/10/11 06:55:14;;;;;;;;;;;;;;;20.91;29.72;99082.31;4981878;28;1010;-76
2023/10/11 06:57:39;;;;;;;;;;;;;;;20.88;29.82;99074.63;4997416;28;1980;-75
2023/10/11 07:00:29;;;;;;;;;;;;;;;20.73;30.07;99071.91;4980727;28;1019;-75
2023/10/11 07:03:07;;;;;;;;;;;;;;;20.62;30.31;99085.28;4982941;28;1164;-76
2023/10/11 07:05:42;;;;;;;;;;;;;;;20.98;29.71;99070.91;4973642;28;1459;-76
2023/10/11 07:08:08;;;;;;;;;;;;;;;20.88;29.76;99088.78;4980885;28;1128;-76
2023/10/11 07:10:34;;;;;;;;;;;;;;;21.08;29.68;99081.34;4980815;28;1037;-76
2023/10/11 07:13:07;;;;;;;;;;;;;;;21.13;29.52;99075.25;4980627;28;1277;-76
2023/10/11 07:15:43;;;;;;;;;;;;;;;20.83;29.97;99092.03;4980664;28;1227;-76
2023/10/11 07:18:12;;;;;;;;;;;;;;;20.71;30.10;99082.81;4996968;28;1997;-76
2023/10/11 07:21:05;;;;;;;;;;;;;;;20.75;29.86;99079.97;4999305;28;1535;-76
2023/10/11 07:23:24;;;;;;;;;;;;;;;20.79;29.94;99080.75;5030939;28;1538;-77
2023/10/11 07:25:59;;;;;;;;;;;;;;;20.93;29.51;99085.50;5017745;28;1297;-77
2023/10/11 07:28:37;;;;;;;;;;;;;;;20.89;29.85;99085.56;5013212;28;1549;-76
2023/10/11 07:31:03;;;;;;;;;;;;;;;20.85;30.01;99075.47;5027837;28;1393;-76
2023/10/11 07:33:29;;;;;;;;;;;;;;;20.76;29.99;99082.38;5008539;28;1562;-76
2023/10/11 07:35:55;;;;;;;;;;;;;;;20.70;30.20;99077.59;5015577;28;1620;-77
2023/10/11 07:38:21;;;;;;;;;;;;;;;20.98;29.72;99087.91;4999230;28;1906;-76
2023/10/11 07:40:46;;;;;;;;;;;;;;;20.92;29.77;99079.03;4998461;28;1590;-76
2023/10/11 07:43:16;;;;;;;;;;;;;;;20.95;29.67;99094.41;4982460;28;1610;-77
2023/10/11 07:45:47;;;;;;;;;;;;;;;20.94;29.79;99087.13;4999910;28;1624;-76
2023/10/11 07:48:16;;;;;;;;;;;;;;;20.87;29.81;99087.97;5000021;28;949;-76
2023/10/11 07:50:42;;;;;;;;;;;;;;;20.78;29.80;99085.63;4979846;28;1211;-75
2023/10/11 07:53:13;;;;;;;;;;;;;;;20.94;29.85;99087.94;4979777;28;1007;-75
2023/10/11 07:55:45;;;;;;;;;;;;;;;21.01;29.50;99098.41;4996136;28;962;-75
2023/10/11 07:58:11;;;;;;;;;;;;;;;20.93;29.87;99091.16;4996129;28;1975;-75
2023/10/11 08:00:41;;;;;;;;;;;;;;;20.91;30.00;99099.28;4979813;28;975;-75
2023/10/11 08:03:08;;;;;;;;;;;;;;;20.84;29.88;99088.00;4964175;28;1277;-76
2023/10/11 08:05:35;;;;;;;;;;;;;;;20.66;30.29;99088.91;4963843;28;978;-75
2023/10/11 08:08:01;;;;;;;;;;;;;;;21.00;29.88;99103.25;4908002;29;1100;-75
2023/10/11 08:10:29;;;;;;;;;;;;;;;20.78;29.88;99101.78;4922041;29;1098;-75
2023/10/11 08:12:57;;;;;;;;;;;;;;;21.05;29.83;99099.19;4937523;29;1171;-75
2023/10/11 08:15:25;;;;;;;;;;;;;;;21.21;29.28;99095.84;4923115;29;1006;-76
2023/10/11 08:17:53;;;;;;;;;;;;;;;20.98;29.97;99105.69;4921991;29;1986;-75
2023/10/11 08:20:19;;;;;;;;;;;;;;;20.55;30.24;99048.56;4938042;29;903;-75
2023/10/11 08:22:47;;;;;;;;;;;;;;;21.18;29.50;99097.47;4942952;28;1305;-76
2023/10/11 08:25:13;;;;;;;;;;;;;;;21.04;29.84;99097.59;4960378;28;1181;-75
2023/10/11 08:27:39;;;;;;;;;;;;;;;21.00;29.90;99097.59;4976372;28;1244;-76
2023/10/11 08:32:37;;;;;;;;;;;;;;;20.74;29.91;99095.34;4957004;29;1025;-75
2023/10/11 08:35:04;;;;;;;;;;;;;;;20.99;29.46;99089.53;4940554;28;1086;-76
2023/10/11 08:37:32;;;;;;;;;;;;;;;20.90;29.59;99087.16;4959813;28;1969;-75
2023/10/11 08:39:57;;;;;;;;;;;;;;;20.90;29.59;99084.31;4979637;28;1026;-76
2023/10/11 08:42:30;;;;;;;;;;;;;;;21.10;29.14;99084.59;4979024;28;998;-76
2023/10/11 08:44:59;;;;;;;;;;;;;;;20.80;29.77;99090.84;4995679;28;1137;-75
2023/10/11 08:47:24;;;;;;;;;;;;;;;20.85;29.71;99090.41;4979235;28;1112;-75
2023/10/11 08:49:50;;;;;;;;;;;;;;;20.70;29.77;99089.69;4979395;28;1094;-75
2023/10/11 08:52:22;;;;;;;;;;;;;;;20.93;29.21;99085.50;4995587;28;981;-75
2023/10/11 08:54:48;;;;;;;;;;;;;;;21.11;28.98;99080.53;4963060;28;1082;-76
2023/10/11 08:57:14;;;;;;;;;;;;;;;21.29;28.57;99084.03;4963104;28;1903;-75
2023/10/11 08:59:49;;;;;;;;;;;;;;;20.90;29.19;99092.00;4978916;28;958;-76
2023/10/11 09:02:17;;;;;;;;;;;;;;;20.64;29.40;99080.03;4962960;28;1184;-77
2023/10/11 09:04:59;;;;;;;;;;;;;;;20.75;29.38;99080.78;5036721;28;887;-77
2023/10/11 09:07:38;;;;;;;;;;;;;;;20.69;29.33;99081.63;5014535;28;971;-77
2023/10/11 09:10:25;;;;;;;;;;;;;;;20.84;29.31;99088.00;4998362;28;922;-76
2023/10/11 09:12:56;;;;;;;;;;;;;;;20.99;28.82;99075.38;4978943;28;1289;-76
2023/10/11 09:15:44;;;;;;;;;;;;;;;20.94;29.09;99075.81;4994815;28;1260;-76
2023/10/11 09:18:13;;;;;;;;;;;;;;;20.89;29.12;99085.56;4994808;28;1963;-78
2023/10/11 09:20:42;;;;;;;;;;;;;;;20.79;28.89;99081.56;4978966;28;1449;-76
2023/10/11 09:23:08;;;;;;;;;;;;;;;20.88;28.81;99085.94;4979009;28;964;-76
2023/10/11 09:25:57;;;;;;;;;;;;;;;20.92;28.99;99089.56;4978783;28;1215;-77
2023/10/11 09:28:26;;;;;;;;;;;;;;;20.99;28.68;99078.22;4980517;28;1139;-76
2023/10/11 09:31:10;;;;;;;;;;;;;;;20.93;28.95;99086.31;4978877;28;1106;-76
2023/10/11 09:33:38;;;;;;;;;;;;;;;20.82;28.70;99068.59;4978246;28;1414;-76
2023/10/11 09:36:04;;;;;;;;;;;;;;;20.47;29.28;99086.59;4994786;28;1192;-76
2023/10/11 09:38:38;;;;;;;;;;;;;;;20.80;28.94;99086.00;5005068;28;1898;-76
2023/10/11 09:41:07;;;;;;;;;;;;;;;20.92;28.80;99078.25;4997571;28;1572;-75
2023/10/11 09:43:34;;;;;;;;;;;;;;;20.99;28.66;99066.91;5013666;28;1488;-76
2023/10/11 09:46:00;;;;;;;;;;;;;;;20.59;29.22;99060.69;4997758;28;1639;-75
2023/10/11 09:48:26;;;;;;;;;;;;;;;20.88;28.60;99066.16;4997716;28;1552;-75
2023/10/11 09:50:57;;;;;;;;;;;;;;;20.78;29.09;99074.31;4996090;28;1766;-76
2023/10/11 09:53:25;;;;;;;;;;;;;;;20.77;29.08;99078.34;4978879;28;1583;-75
2023/10/11 09:55:57;;;;;;;;;;;;;;;20.76;29.09;99068.25;4994165;28;1628;-76
2023/10/11 09:58:30;;;;;;;;;;;;;;;20.84;28.91;99066.19;4977937;28;1907;-76
2023/10/11 10:01:12;;;;;;;;;;;;;;;20.71;29.08;99056.56;4994346;28;1035;-75
2023/10/11 10:03:44;;;;;;;;;;;;;;;20.68;29.15;99055.38;4994279;28;994;-75
2023/10/11 10:06:18;;;;;;;;;;;;;;;20.65;29.27;99052.56;4949689;28;999;-75
2023/10/11 10:08:50;;;;;;;;;;;;;;;20.92;28.69;99061.28;4920983;29;1125;-74
2023/10/11 10:11:19;;;;;;;;;;;;;;;20.84;28.66;99054.06;4936411;29;942;-75
2023/10/11 10:14:00;;;;;;;;;;;;;;;20.66;28.90;99054.16;4920503;29;906;-75
2023/10/11 10:16:44;;;;;;;;;;;;;;;20.86;28.74;99054.44;4936044;29;1922;-75
2023/10/11 10:19:24;;;;;;;;;;;;;;;20.38;29.53;99049.47;4936557;29;1128;-75
2023/10/11 10:22:09;;;;;;;;;;;;;;;20.61;28.97;99041.25;4936286;29;965;-76
2023/10/11 10:24:34;;;;;;;;;;;;;;;20.59;29.16;99043.72;4958665;28;1495;-76
2023/10/11 10:27:12;;;;;;;;;;;;;;;20.41;29.78;99042.97;4942848;28;955;-76
2023/10/11 10:29:59;;;;;;;;;;;;;;;20.72;28.88;99041.19;4976409;28;1109;-75
2023/10/11 10:32:25;;;;;;;;;;;;;;;20.63;29.31;99041.69;4987724;28;1515;-75
2023/10/11 10:35:09;;;;;;;;;;;;;;;20.43;29.36;99034.91;4981287;28;1519;-75
2023/10/11 10:37:50;;;;;;;;;;;;;;;20.54;29.26;99030.00;4997646;28;1993;-76
2023/10/11 10:40:24;;;;;;;;;;;;;;;20.87;28.70;99036.25;4997640;28;959;-75
2023/10/11 10:43:31;;;;;;;;;;;;;;;20.75;28.69;99024.22;5004611;28;1241;-74
2023/10/11 10:45:59;;;;;;;;;;;;;;;20.53;29.49;99023.56;5036613;28;952;-75
2023/10/11 10:48:25;;;;;;;;;;;;;;;20.75;29.06;99029.88;5020222;28;1313;-76
2023/10/11 10:50:50;;;;;;;;;;;;;;;20.78;28.80;99029.06;5020259;28;920;-76
2023/10/11 10:53:16;;;;;;;;;;;;;;;20.86;28.45;99023.34;5036920;28;1176;-75
2023/10/11 10:55:42;;;;;;;;;;;;;;;20.80;28.66;99020.94;5036950;28;1527;-75
2023/10/11 10:58:17;;;;;;;;;;;;;;;20.49;29.57;99021.97;5020259;28;1992;-76
2023/10/11 11:00:43;;;;;;;;;;;;;;;20.47;29.29;99018.75;5030314;28;884;-76
2023/10/11 11:03:41;;;;;;;;;;;;;;;20.66;28.96;99026.69;4980860;28;924;-75
2023/10/11 11:06:11;;;;;;;;;;;;;;;20.55;29.39;99037.28;4958100;29;1033;-75
2023/10/11 11:08:39;;;;;;;;;;;;;;;20.61;29.07;99029.97;4927234;29;1224;-76
2023/10/11 11:13:49;;;;;;;;;;;;;;;20.72;29.06;99025.03;4944643;29;968;-75
2023/10/11 11:16:26;;;;;;;;;;;;;;;20.79;28.91;99010.06;4942564;29;1034;-76
2023/10/11 11:18:51;;;;;;;;;;;;;;;20.75;29.10;99012.09;4926809;29;1290;-75
2023/10/11 11:21:19;;;;;;;;;;;;;;;20.60;29.24;99025.53;4942373;29;914;-76
2023/10/11 11:23:51;;;;;;;;;;;;;;;20.58;29.27;99030.78;4942570;29;1061;-75
2023/10/11 11:26:23;;;;;;;;;;;;;;;20.39;29.41;99023.59;4926676;29;1134;-75
2023/10/11 11:28:53;;;;;;;;;;;;;;;20.39;29.54;99029.25;4926752;29;1460;-74
2023/10/11 11:34:05;;;;;;;;;;;;;;;20.63;29.18;99021.88;4943028;29;1007;-76
2023/10/11 11:36:31;;;;;;;;;;;;;;;20.54;29.24;99030.00;4939665;28;1965;-75
2023/10/11 11:39:17;;;;;;;;;;;;;;;20.51;29.29;99028.00;4960926;28;995;-76
2023/10/11 11:41:57;;;;;;;;;;;;;;;20.54;29.35;99027.97;4975418;28;1225;-75
2023/10/11 11:44:27;;;;;;;;;;;;;;;20.60;29.40;99025.53;5021199;28;953;-75
2023/10/11 11:46:53;;;;;;;;;;;;;;;20.38;29.52;99021.19;5036992;28;948;-75
2023/10/11 11:49:20;;;;;;;;;;;;;;;20.45;29.52;99021.13;5020481;28;1726;-75
2023/10/11 11:51:47;;;;;;;;;;;;;;;20.88;28.81;99024.53;5038000;28;923;-75
2023/10/11 11:54:19;;;;;;;;;;;;;;;20.90;28.86;99024.13;5036966;28;1312;-76
2023/10/11 11:56:45;;;;;;;;;;;;;;;20.75;29.12;99023.41;5036457;28;1969;-75
2023/10/11 11:59:19;;;;;;;;;;;;;;;20.67;29.28;99021.84;5036909;28;983;-75
2023/10/11 12:01:49;;;;;;;;;;;;;;;20.69;29.01;99011.72;5021049;28;919;-76
2023/10/11 12:04:19;;;;;;;;;;;;;;;20.45;29.37;99021.13;5036815;28;1479;-75
2023/10/11 12:06:46;;;;;;;;;;;;;;;20.66;28.95;99015.38;5020702;28;1124;-76
2023/10/11 12:09:20;;;;;;;;;;;;;;;20.51;29.56;99019.50;5036357;28;955;-75
2023/10/11 12:11:49;;;;;;;;;;;;;;;20.80;28.97;99020.94;5035293;28;1158;-76
2023/10/11 12:14:15;;;;;;;;;;;;;;;20.43;29.30;99018.72;5035208;28;1054;-76
2023/10/11 12:16:42;;;;;;;;;;;;;;;20.70;29.31;99019.00;5018779;28;1965;-75
2023/10/11 12:19:11;;;;;;;;;;;;;;;20.61;29.08;99013.00;5018750;28;905;-75
2023/10/11 12:21:37;;;;;;;;;;;;;;;20.54;29.49;99018.69;5038693;28;975;-75
2023/10/11 12:24:10;;;;;;;;;;;;;;;20.84;28.93;99014.47;5055416;28;950;-75
2023/10/11 12:26:35;;;;;;;;;;;;;;;20.56;29.39;99010.59;5023537;28;971;-75
2023/10/11 12:29:04;;;;;;;;;;;;;;;20.44;29.70;99023.16;5014944;28;1042;-75
2023/10/11 12:31:29;;;;;;;;;;;;;;;20.73;28.84;99003.22;4999564;28;1298;-75
2023/10/11 12:33:55;;;;;;;;;;;;;;;20.67;28.94;99008.50;4995562;28;961;-75
2023/10/11 12:36:21;;;;;;;;;;;;;;;20.53;29.32;99015.06;4979319;28;1156;-76
2023/10/11 12:38:47;;;;;;;;;;;;;;;20.75;29.00;99000.78;4963144;28;1914;-76
2023/10/11 12:41:15;;;;;;;;;;;;;;;20.65;28.93;99019.44;4963645;28;887;-75
2023/10/11 12:43:40;;;;;;;;;;;;;;;20.70;29.20;99004.84;4962609;28;1054;-75
2023/10/11 12:46:06;;;;;;;;;;;;;;;20.57;29.13;99006.53;4975918;28;1333;-75
2023/10/11 12:48:32;;;;;;;;;;;;;;;20.71;29.34;99000.81;4992236;28;991;-75
2023/10/11 12:51:00;;;;;;;;;;;;;;;20.47;29.51;99013.09;4959243;28;1155;-75
2023/10/11 12:53:29;;;;;;;;;;;;;;;20.63;29.17;99010.56;4978737;28;992;-76
2023/10/11 12:55:54;;;;;;;;;;;;;;;20.81;29.06;98994.25;4959716;28;1051;-75
2023/10/11 12:58:27;;;;;;;;;;;;;;;20.74;28.93;98999.97;4959952;28;1902;-75
2023/10/11 13:00:58;;;;;;;;;;;;;;;20.92;28.73;98999.03;4964227;28;940;-75
2023/10/11 13:03:29;;;;;;;;;;;;;;;20.50;29.57;99004.56;4962421;28;1559;-74
2023/10/11 13:05:55;;;;;;;;;;;;;;;20.93;28.84;98989.31;5015510;28;937;-76
2023/10/11 13:08:28;;;;;;;;;;;;;;;20.75;29.24;99001.59;5036556;28;969;-75
2023/10/11 13:10:53;;;;;;;;;;;;;;;20.84;29.03;98998.28;5019019;28;937;-75
2023/10/11 13:13:22;;;;;;;;;;;;;;;20.79;29.23;98990.25;4985565;28;1105;-76
2023/10/11 13:15:59;;;;;;;;;;;;;;;20.54;29.20;99001.72;5019076;28;900;-75
2023/10/11 13:18:26;;;;;;;;;;;;;;;20.29;29.83;99008.31;5020205;28;1906;-75
2023/10/11 13:20:53;;;;;;;;;;;;;;;20.66;29.26;99001.25;4998361;28;996;-75
2023/10/11 13:23:18;;;;;;;;;;;;;;;20.64;29.14;98994.41;5014459;28;1449;-74
2023/10/11 13:25:44;;;;;;;;;;;;;;;20.69;29.06;98997.59;5014552;28;1082;-74
2023/10/11 13:28:14;;;;;;;;;;;;;;;20.87;29.00;98996.66;4998462;28;983;-76
2023/10/11 13:30:40;;;;;;;;;;;;;;;20.50;29.41;98993.28;4994610;28;975;-76
2023/10/11 13:33:09;;;;;;;;;;;;;;;20.68;29.13;98998.81;4978793;28;973;-75
2023/10/11 13:35:35;;;;;;;;;;;;;;;20.67;29.08;99000.00;4994706;28;1133;-76
2023/10/11 13:38:04;;;;;;;;;;;;;;;20.78;28.84;99000.75;4975406;28;1979;-76
2023/10/11 13:40:32;;;;;;;;;;;;;;;20.91;28.72;98991.78;4936879;29;926;-75
2023/10/11 13:42:57;;;;;;;;;;;;;;;20.59;29.27;98995.66;4936640;29;916;-75
2023/10/11 13:45:23;;;;;;;;;;;;;;;20.63;29.30;98995.63;4936668;29;1010;-75
2023/10/11 13:47:51;;;;;;;;;;;;;;;20.48;29.68;98986.44;4920734;29;930;-75
2023/10/11 13:50:30;;;;;;;;;;;;;;;20.78;29.04;98983.78;4936581;29;955;-75
2023/10/11 13:52:56;;;;;;;;;;;;;;;20.86;28.70;98995.84;4936850;29;983;-76
2023/10/11 13:55:26;;;;;;;;;;;;;;;20.79;29.03;98996.72;4905267;29;915;-75
2023/10/11 13:57:55;;;;;;;;;;;;;;;20.80;28.74;98998.31;4921077;29;1903;-75
2023/10/11 14:05:40;;;;;;;;;;;;;;;20.66;29.03;98981.44;4925627;29;897;-75
2023/10/11 14:10:50;;;;;;;;;;;;;;;21.30;28.41;98978.13;4965341;28;991;-76
2023/10/11 14:13:15;;;;;;;;;;;;;;;21.56;28.55;98975.81;4962795;28;1008;-75
2023/10/11 14:15:41;;;;;;;;;;;;;;;21.62;28.71;98974.13;4946841;28;1157;-76